sensor_id;sensor_type;location;lat;lon;timestamp;pressure;altitude;pressure_sealevel;temperature;humidity
39267;BME280;24967;51.154;13.812;2023-04-08T00:01:27;99807.91;;;5.91;93.13
39267;BME280;24967;51.154;13.812;2023-04-08T00:03:54;99803.53;;;6.03;92.95
39267;BME280;24967;51.154;13.812;2023-04-08T00:06:20;99805.72;;;6.09;92.57
39267;BME280;24967;51.154;13.812;2023-04-08T00:08:48;99805.38;;;6.25;91.61
39267;BME280;24967;51.154;13.812;2023-04-08T00:11:15;99794.25;;;6.33;91.51
39267;BME280;24967;51.154;13.812;2023-04-08T00:13:41;99796.50;;;6.26;91.42
39267;BME280;24967;51.154;13.812;2023-04-08T00:16:07;99793.28;;;6.34;91.17
39267;BME280;24967;51.154;13.812;2023-04-08T00:18:34;99801.13;;;6.00;93.53
39267;BME280;24967;51.154;13.812;2023-04-08T00:21:02;99791.03;;;5.94;94.17
39267;BME280;24967;51.154;13.812;2023-04-08T00:23:29;99790.34;;;6.03;93.76
39267;BME280;24967;51.154;13.812;2023-04-08T00:25:56;99804.09;;;5.95;93.45
39267;BME280;24967;51.154;13.812;2023-04-08T00:28:23;99796.00;;;6.10;94.22
39267;BME280;24967;51.154;13.812;2023-04-08T00:30:49;99801.97;;;6.01;94.73
39267;BME280;24967;51.154;13.812;2023-04-08T00:33:17;99802.94;;;6.00;95.32
39267;BME280;24967;51.154;13.812;2023-04-08T00:35:44;99808.97;;;6.13;94.22
39267;BME280;24967;51.154;13.812;2023-04-08T00:38:10;99801.22;;;6.34;92.64
39267;BME280;24967;51.154;13.812;2023-04-08T00:40:37;99810.25;;;6.07;94.22
39267;BME280;24967;51.154;13.812;2023-04-08T00:43:04;99807.44;;;6.22;94.07
39267;BME280;24967;51.154;13.812;2023-04-08T00:45:32;99803.53;;;6.38;92.87
39267;BME280;24967;51.154;13.812;2023-04-08T00:47:58;99805.16;;;6.28;93.01
39267;BME280;24967;51.154;13.812;2023-04-08T00:50:25;99804.69;;;6.34;93.36
39267;BME280;24967;51.154;13.812;2023-04-08T00:52:51;99805.13;;;6.17;95.16
39267;BME280;24967;51.154;13.812;2023-04-08T00:55:18;99805.81;;;5.96;96.41
39267;BME280;24967;51.154;13.812;2023-04-08T00:57:45;99795.50;;;6.05;95.97
39267;BME280;24967;51.154;13.812;2023-04-08T01:00:14;99794.59;;;6.28;94.71
39267;BME280;24967;51.154;13.812;2023-04-08T01:02:44;99795.06;;;6.22;95.78
39267;BME280;24967;51.154;13.812;2023-04-08T01:05:15;99794.09;;;6.12;96.23
39267;BME280;24967;51.154;13.812;2023-04-08T01:07:47;99799.03;;;6.28;95.15
39267;BME280;24967;51.154;13.812;2023-04-08T01:12:49;99796.63;;;6.25;96.29
39267;BME280;24967;51.154;13.812;2023-04-08T01:15:18;99796.03;;;6.21;96.70
39267;BME280;24967;51.154;13.812;2023-04-08T01:17:46;99793.91;;;6.37;96.11
39267;BME280;24967;51.154;13.812;2023-04-08T01:20:14;99787.53;;;6.40;95.41
39267;BME280;24967;51.154;13.812;2023-04-08T01:22:49;99791.75;;;5.96;98.09
39267;BME280;24967;51.154;13.812;2023-04-08T01:25:20;99799.03;;;6.28;96.89
39267;BME280;24967;51.154;13.812;2023-04-08T01:27:51;99797.00;;;6.31;96.65
39267;BME280;24967;51.154;13.812;2023-04-08T01:30:22;99793.91;;;6.37;95.31
39267;BME280;24967;51.154;13.812;2023-04-08T01:32:50;99799.47;;;6.57;95.57
39267;BME280;24967;51.154;13.812;2023-04-08T01:35:18;99789.63;;;6.70;94.64
39267;BME280;24967;51.154;13.812;2023-04-08T01:37:45;99785.91;;;6.84;93.62
39267;BME280;24967;51.154;13.812;2023-04-08T01:40:14;99776.88;;;6.64;94.54
39267;BME280;24967;51.154;13.812;2023-04-08T01:42:43;99781.91;;;6.56;94.89
39267;BME280;24967;51.154;13.812;2023-04-08T01:45:11;99789.44;;;6.38;95.73
39267;BME280;24967;51.154;13.812;2023-04-08T01:47:38;99785.16;;;6.59;94.74
39267;BME280;24967;51.154;13.812;2023-04-08T01:50:06;99780.47;;;6.52;95.21
39267;BME280;24967;51.154;13.812;2023-04-08T01:52:36;99783.81;;;6.42;96.54
39267;BME280;24967;51.154;13.812;2023-04-08T01:55:04;99791.16;;;6.50;95.86
39267;BME280;24967;51.154;13.812;2023-04-08T01:57:32;99791.06;;;6.63;94.67
39267;BME280;24967;51.154;13.812;2023-04-08T02:00:02;99791.88;;;6.86;92.87
39267;BME280;24967;51.154;13.812;2023-04-08T02:02:33;99794.66;;;6.73;93.70
39267;BME280;24967;51.154;13.812;2023-04-08T02:05:01;99793.94;;;6.82;93.97
39267;BME280;24967;51.154;13.812;2023-04-08T02:07:28;99800.41;;;6.67;93.76
39267;BME280;24967;51.154;13.812;2023-04-08T02:09:55;99796.47;;;6.84;94.14
39267;BME280;24967;51.154;13.812;2023-04-08T02:12:21;99795.38;;;6.64;94.02
39267;BME280;24967;51.154;13.812;2023-04-08T02:14:48;99796.34;;;6.85;93.35
39267;BME280;24967;51.154;13.812;2023-04-08T02:17:18;99790.91;;;6.98;92.34
39267;BME280;24967;51.154;13.812;2023-04-08T02:19:52;99796.34;;;6.85;92.79
39267;BME280;24967;51.154;13.812;2023-04-08T02:22:30;99797.19;;;6.63;93.72
39267;BME280;24967;51.154;13.812;2023-04-08T02:24:58;99803.06;;;6.89;92.52
39267;BME280;24967;51.154;13.812;2023-04-08T02:27:28;99792.84;;;6.85;92.85
39267;BME280;24967;51.154;13.812;2023-04-08T02:29:57;99796.22;;;6.87;92.55
39267;BME280;24967;51.154;13.812;2023-04-08T02:32:25;99809.44;;;6.76;93.12
39267;BME280;24967;51.154;13.812;2023-04-08T02:34:55;99807.75;;;6.63;93.97
39267;BME280;24967;51.154;13.812;2023-04-08T02:37:23;99801.38;;;6.77;93.83
39267;BME280;24967;51.154;13.812;2023-04-08T02:39:49;99809.41;;;6.64;94.33
39267;BME280;24967;51.154;13.812;2023-04-08T02:42:15;99799.22;;;6.82;93.05
39267;BME280;24967;51.154;13.812;2023-04-08T02:44:42;99813.88;;;6.98;92.52
39267;BME280;24967;51.154;13.812;2023-04-08T02:47:08;99808.72;;;6.85;93.11
39267;BME280;24967;51.154;13.812;2023-04-08T02:49:35;99803.44;;;6.85;92.96
39267;BME280;24967;51.154;13.812;2023-04-08T02:52:03;99814.84;;;6.85;92.59
39267;BME280;24967;51.154;13.812;2023-04-08T02:54:29;99817.09;;;7.01;91.96
39267;BME280;24967;51.154;13.812;2023-04-08T02:56:56;99811.13;;;6.99;91.49
39267;BME280;24967;51.154;13.812;2023-04-08T02:59:23;99811.47;;;7.17;90.60
39267;BME280;24967;51.154;13.812;2023-04-08T03:01:50;99802.69;;;7.05;91.27
39267;BME280;24967;51.154;13.812;2023-04-08T03:04:16;99811.09;;;7.22;91.27
39267;BME280;24967;51.154;13.812;2023-04-08T03:06:42;99811.66;;;7.25;90.53
39267;BME280;24967;51.154;13.812;2023-04-08T03:09:10;99806.91;;;6.97;91.47
39267;BME280;24967;51.154;13.812;2023-04-08T03:11:37;99815.06;;;7.16;91.19
39267;BME280;24967;51.154;13.812;2023-04-08T03:16:39;99817.84;;;7.03;91.34
39267;BME280;24967;51.154;13.812;2023-04-08T03:19:05;99819.50;;;7.16;90.90
39267;BME280;24967;51.154;13.812;2023-04-08T03:21:34;99815.78;;;7.29;89.85
39267;BME280;24967;51.154;13.812;2023-04-08T03:24:01;99815.53;;;7.10;90.82
39267;BME280;24967;51.154;13.812;2023-04-08T03:26:28;99816.66;;;6.96;91.81
39267;BME280;24967;51.154;13.812;2023-04-08T03:28:55;99822.28;;;6.69;92.99
39267;BME280;24967;51.154;13.812;2023-04-08T03:31:21;99812.44;;;6.94;92.40
39267;BME280;24967;51.154;13.812;2023-04-08T03:33:48;99813.50;;;7.14;91.91
39267;BME280;24967;51.154;13.812;2023-04-08T03:36:14;99810.16;;;7.11;92.04
39267;BME280;24967;51.154;13.812;2023-04-08T03:38:41;99818.31;;;6.97;92.21
39267;BME280;24967;51.154;13.812;2023-04-08T03:41:07;99811.09;;;7.10;92.21
39267;BME280;24967;51.154;13.812;2023-04-08T03:43:37;99816.88;;;7.04;92.43
39267;BME280;24967;51.154;13.812;2023-04-08T03:46:04;99811.34;;;7.19;92.18
39267;BME280;24967;51.154;13.812;2023-04-08T03:48:30;99812.88;;;7.32;90.64
39267;BME280;24967;51.154;13.812;2023-04-08T03:50:57;99813.81;;;7.31;90.65
39267;BME280;24967;51.154;13.812;2023-04-08T03:53:23;99817.44;;;7.19;90.12
39267;BME280;24967;51.154;13.812;2023-04-08T03:55:52;99810.59;;;7.28;90.85
39267;BME280;24967;51.154;13.812;2023-04-08T03:58:18;99812.53;;;7.15;91.02
39267;BME280;24967;51.154;13.812;2023-04-08T04:00:46;99811.81;;;7.01;92.19
39267;BME280;24967;51.154;13.812;2023-04-08T04:03:12;99818.44;;;7.18;92.00
39267;BME280;24967;51.154;13.812;2023-04-08T04:05:39;99820.59;;;7.13;91.76
39267;BME280;24967;51.154;13.812;2023-04-08T04:08:06;99818.06;;;7.11;91.97
39267;BME280;24967;51.154;13.812;2023-04-08T04:10:33;99819.03;;;7.10;91.70
39267;BME280;24967;51.154;13.812;2023-04-08T04:13:00;99831.53;;;7.08;91.53
39267;BME280;24967;51.154;13.812;2023-04-08T04:15:26;99829.09;;;7.17;91.43
39267;BME280;24967;51.154;13.812;2023-04-08T04:20:22;99833.56;;;7.27;91.83
39267;BME280;24967;51.154;13.812;2023-04-08T04:22:50;99832.56;;;7.40;91.10
39267;BME280;24967;51.154;13.812;2023-04-08T04:25:16;99838.31;;;7.56;90.20
39267;BME280;24967;51.154;13.812;2023-04-08T04:27:43;99836.03;;;7.51;90.19
39267;BME280;24967;51.154;13.812;2023-04-08T04:30:09;99836.69;;;7.32;90.21
39267;BME280;24967;51.154;13.812;2023-04-08T04:32:39;99840.03;;;7.34;90.41
39267;BME280;24967;51.154;13.812;2023-04-08T04:35:07;99839.78;;;7.38;90.55
39267;BME280;24967;51.154;13.812;2023-04-08T04:37:35;99845.56;;;7.43;89.92
39267;BME280;24967;51.154;13.812;2023-04-08T04:40:01;99845.91;;;7.49;89.83
39267;BME280;24967;51.154;13.812;2023-04-08T04:42:28;99858.19;;;7.28;90.91
39267;BME280;24967;51.154;13.812;2023-04-08T04:44:54;99852.97;;;7.60;90.44
39267;BME280;24967;51.154;13.812;2023-04-08T04:47:21;99859.63;;;7.43;89.98
39267;BME280;24967;51.154;13.812;2023-04-08T04:49:48;99864.66;;;7.46;90.82
39267;BME280;24967;51.154;13.812;2023-04-08T04:52:15;99864.31;;;7.28;91.74
39267;BME280;24967;51.154;13.812;2023-04-08T04:54:42;99867.06;;;7.38;90.99
39267;BME280;24967;51.154;13.812;2023-04-08T04:57:09;99865.28;;;7.39;91.00
39267;BME280;24967;51.154;13.812;2023-04-08T04:59:36;99861.66;;;7.40;90.85
39267;BME280;24967;51.154;13.812;2023-04-08T05:02:02;99859.63;;;7.43;91.75
39267;BME280;24967;51.154;13.812;2023-04-08T05:04:29;99859.59;;;7.54;90.81
39267;BME280;24967;51.154;13.812;2023-04-08T05:06:57;99859.13;;;7.49;90.93
39267;BME280;24967;51.154;13.812;2023-04-08T05:09:24;99860.50;;;7.87;89.30
39267;BME280;24967;51.154;13.812;2023-04-08T05:11:52;99865.31;;;7.71;89.58
39267;BME280;24967;51.154;13.812;2023-04-08T05:14:18;99861.59;;;7.73;89.07
39267;BME280;24967;51.154;13.812;2023-04-08T05:16:45;99863.34;;;7.41;90.08
39267;BME280;24967;51.154;13.812;2023-04-08T05:19:11;99869.94;;;7.69;90.08
39267;BME280;24967;51.154;13.812;2023-04-08T05:21:37;99868.81;;;7.71;89.82
39267;BME280;24967;51.154;13.812;2023-04-08T05:24:04;99867.63;;;7.75;89.72
39267;BME280;24967;51.154;13.812;2023-04-08T05:26:31;99877.72;;;7.70;89.59
39267;BME280;24967;51.154;13.812;2023-04-08T05:28:58;99876.97;;;7.79;88.71
39267;BME280;24967;51.154;13.812;2023-04-08T05:31:25;99883.34;;;7.77;88.84
39267;BME280;24967;51.154;13.812;2023-04-08T05:33:52;99881.00;;;7.63;89.39
39267;BME280;24967;51.154;13.812;2023-04-08T05:36:18;99887.22;;;7.84;89.64
39267;BME280;24967;51.154;13.812;2023-04-08T05:38:44;99885.66;;;7.82;89.64
39267;BME280;24967;51.154;13.812;2023-04-08T05:41:11;99883.91;;;7.92;88.99
39267;BME280;24967;51.154;13.812;2023-04-08T05:43:37;99889.72;;;7.86;89.14
39267;BME280;24967;51.154;13.812;2023-04-08T05:46:09;99890.94;;;7.82;89.33
39267;BME280;24967;51.154;13.812;2023-04-08T05:48:36;99892.19;;;7.66;90.53
39267;BME280;24967;51.154;13.812;2023-04-08T05:51:02;99898.91;;;7.70;90.56
39267;BME280;24967;51.154;13.812;2023-04-08T05:53:29;99890.97;;;7.70;90.87
39267;BME280;24967;51.154;13.812;2023-04-08T05:55:55;99897.72;;;7.63;91.59
39267;BME280;24967;51.154;13.812;2023-04-08T05:58:21;99898.41;;;7.65;91.78
39267;BME280;24967;51.154;13.812;2023-04-08T06:00:48;99903.38;;;7.47;93.44
39267;BME280;24967;51.154;13.812;2023-04-08T06:03:16;99900.50;;;7.28;96.42
39267;BME280;24967;51.154;13.812;2023-04-08T06:05:42;99909.88;;;7.43;96.18
39267;BME280;24967;51.154;13.812;2023-04-08T06:08:08;99910.34;;;7.37;96.74
39267;BME280;24967;51.154;13.812;2023-04-08T06:10:35;99909.53;;;7.48;96.50
39267;BME280;24967;51.154;13.812;2023-04-08T06:13:01;99915.28;;;7.53;96.32
39267;BME280;24967;51.154;13.812;2023-04-08T06:15:28;99911.19;;;7.49;96.61
39267;BME280;24967;51.154;13.812;2023-04-08T06:17:54;99928.38;;;7.54;96.32
39267;BME280;24967;51.154;13.812;2023-04-08T06:20:22;99923.84;;;7.56;97.14
39267;BME280;24967;51.154;13.812;2023-04-08T06:22:49;99914.09;;;7.57;96.96
39267;BME280;24967;51.154;13.812;2023-04-08T06:25:15;99912.88;;;7.50;97.43
39267;BME280;24967;51.154;13.812;2023-04-08T06:27:42;99930.31;;;7.64;96.88
39267;BME280;24967;51.154;13.812;2023-04-08T06:30:09;99925.84;;;7.64;96.67
39267;BME280;24967;51.154;13.812;2023-04-08T06:32:35;99931.13;;;7.64;96.67
39267;BME280;24967;51.154;13.812;2023-04-08T06:35:02;99933.97;;;7.84;95.98
39267;BME280;24967;51.154;13.812;2023-04-08T06:37:30;99933.13;;;7.94;95.19
39267;BME280;24967;51.154;13.812;2023-04-08T06:39:58;99940.56;;;8.00;94.16
39267;BME280;24967;51.154;13.812;2023-04-08T06:42:24;99938.34;;;8.17;93.31
39267;BME280;24967;51.154;13.812;2023-04-08T06:44:51;99943.69;;;8.06;93.76
39267;BME280;24967;51.154;13.812;2023-04-08T06:47:17;99946.19;;;8.18;92.62
39267;BME280;24967;51.154;13.812;2023-04-08T06:49:44;99947.41;;;8.14;93.61
39267;BME280;24967;51.154;13.812;2023-04-08T06:52:10;99946.69;;;8.12;93.25
39267;BME280;24967;51.154;13.812;2023-04-08T06:54:38;99954.59;;;8.23;92.98
39267;BME280;24967;51.154;13.812;2023-04-08T06:57:05;99958.56;;;8.29;93.08
39267;BME280;24967;51.154;13.812;2023-04-08T06:59:31;99959.75;;;8.25;92.57
39267;BME280;24967;51.154;13.812;2023-04-08T07:01:58;99961.34;;;8.16;92.89
39267;BME280;24967;51.154;13.812;2023-04-08T07:04:24;99969.03;;;8.19;92.88
39267;BME280;24967;51.154;13.812;2023-04-08T07:06:50;99972.84;;;8.06;93.10
39267;BME280;24967;51.154;13.812;2023-04-08T07:09:17;99976.56;;;8.03;93.06
39267;BME280;24967;51.154;13.812;2023-04-08T07:11:45;99978.97;;;8.06;93.69
39267;BME280;24967;51.154;13.812;2023-04-08T07:14:11;99972.41;;;8.21;93.14
39267;BME280;24967;51.154;13.812;2023-04-08T07:16:38;99981.97;;;8.01;93.08
39267;BME280;24967;51.154;13.812;2023-04-08T07:19:04;99979.19;;;8.14;91.67
39267;BME280;24967;51.154;13.812;2023-04-08T07:21:31;99984.84;;;8.10;91.64
39267;BME280;24967;51.154;13.812;2023-04-08T07:23:58;99982.53;;;8.16;90.96
39267;BME280;24967;51.154;13.812;2023-04-08T07:26:25;99991.22;;;8.18;90.50
39267;BME280;24967;51.154;13.812;2023-04-08T07:28:54;99996.84;;;8.25;90.41
39267;BME280;24967;51.154;13.812;2023-04-08T07:31:20;100002.88;;;8.27;90.62
39267;BME280;24967;51.154;13.812;2023-04-08T07:33:47;99997.00;;;8.12;89.99
39267;BME280;24967;51.154;13.812;2023-04-08T07:36:14;100002.94;;;7.93;87.70
39267;BME280;24967;51.154;13.812;2023-04-08T07:38:42;100002.53;;;8.09;85.01
39267;BME280;24967;51.154;13.812;2023-04-08T07:41:09;100004.13;;;8.12;84.21
39267;BME280;24967;51.154;13.812;2023-04-08T07:43:36;100010.50;;;8.09;84.00
39267;BME280;24967;51.154;13.812;2023-04-08T07:46:05;100010.72;;;8.17;83.76
39267;BME280;24967;51.154;13.812;2023-04-08T07:48:32;100016.97;;;8.16;82.06
39267;BME280;24967;51.154;13.812;2023-04-08T07:51:02;100017.00;;;8.05;83.70
39267;BME280;24967;51.154;13.812;2023-04-08T07:53:29;100013.81;;;8.22;83.72
39267;BME280;24967;51.154;13.812;2023-04-08T07:55:56;100031.13;;;8.49;83.30
39267;BME280;24967;51.154;13.812;2023-04-08T07:58:22;100026.31;;;8.54;82.98
39267;BME280;24967;51.154;13.812;2023-04-08T08:00:50;100024.97;;;8.60;83.29
39267;BME280;24967;51.154;13.812;2023-04-08T08:03:18;100030.72;;;8.65;83.29
39267;BME280;24967;51.154;13.812;2023-04-08T08:05:45;100028.84;;;8.77;84.14
39267;BME280;24967;51.154;13.812;2023-04-08T08:08:12;100027.31;;;8.95;83.54
39267;BME280;24967;51.154;13.812;2023-04-08T08:10:40;100030.75;;;9.07;81.80
39267;BME280;24967;51.154;13.812;2023-04-08T08:13:07;100025.16;;;9.21;81.02
39267;BME280;24967;51.154;13.812;2023-04-08T08:15:34;100019.16;;;9.29;80.41
39267;BME280;24967;51.154;13.812;2023-04-08T08:18:01;100030.31;;;9.23;79.49
39267;BME280;24967;51.154;13.812;2023-04-08T08:20:29;100034.44;;;9.36;80.12
39267;BME280;24967;51.154;13.812;2023-04-08T08:22:56;100043.13;;;9.38;78.08
39267;BME280;24967;51.154;13.812;2023-04-08T08:25:23;100037.94;;;9.37;77.80
39267;BME280;24967;51.154;13.812;2023-04-08T08:27:50;100043.28;;;9.47;75.76
39267;BME280;24967;51.154;13.812;2023-04-08T08:30:17;100038.97;;;9.25;73.50
39267;BME280;24967;51.154;13.812;2023-04-08T08:32:56;100042.22;;;9.28;75.12
39267;BME280;24967;51.154;13.812;2023-04-08T08:35:29;100047.25;;;9.10;75.81
39267;BME280;24967;51.154;13.812;2023-04-08T08:37:56;100044.75;;;9.09;76.53
39267;BME280;24967;51.154;13.812;2023-04-08T08:40:23;100052.41;;;9.23;76.42
39267;BME280;24967;51.154;13.812;2023-04-08T08:42:50;100061.03;;;9.25;76.01
39267;BME280;24967;51.154;13.812;2023-04-08T08:45:18;100056.72;;;9.24;75.46
39267;BME280;24967;51.154;13.812;2023-04-08T08:47:44;100058.25;;;9.48;74.85
39267;BME280;24967;51.154;13.812;2023-04-08T08:50:11;100066.50;;;9.45;75.91
39267;BME280;24967;51.154;13.812;2023-04-08T08:52:47;100063.53;;;9.38;75.46
39267;BME280;24967;51.154;13.812;2023-04-08T08:55:13;100072.56;;;9.35;73.94
39267;BME280;24967;51.154;13.812;2023-04-08T08:57:40;100072.56;;;9.35;73.91
39267;BME280;24967;51.154;13.812;2023-04-08T09:00:08;100073.94;;;9.30;74.38
39267;BME280;24967;51.154;13.812;2023-04-08T09:02:36;100073.63;;;9.44;74.14
39267;BME280;24967;51.154;13.812;2023-04-08T09:05:03;100079.59;;;9.25;74.08
39267;BME280;24967;51.154;13.812;2023-04-08T09:07:35;100084.28;;;9.54;74.00
39267;BME280;24967;51.154;13.812;2023-04-08T09:10:04;100087.25;;;9.39;73.84
39267;BME280;24967;51.154;13.812;2023-04-08T09:12:30;100082.16;;;9.48;74.60
39267;BME280;24967;51.154;13.812;2023-04-08T09:15:07;100085.97;;;9.55;74.58
39267;BME280;24967;51.154;13.812;2023-04-08T09:17:36;100097.91;;;9.70;74.61
39267;BME280;24967;51.154;13.812;2023-04-08T09:20:03;100093.53;;;9.80;74.56
39267;BME280;24967;51.154;13.812;2023-04-08T09:22:33;100095.50;;;9.88;74.06
39267;BME280;24967;51.154;13.812;2023-04-08T09:25:00;100105.06;;;9.49;73.99
39267;BME280;24967;51.154;13.812;2023-04-08T09:32:46;100103.91;;;9.62;74.53
39267;BME280;24967;51.154;13.812;2023-04-08T09:35:12;100102.78;;;9.65;75.09
39267;BME280;24967;51.154;13.812;2023-04-08T09:37:40;100103.63;;;9.86;73.74
39267;BME280;24967;51.154;13.812;2023-04-08T09:40:08;100109.09;;;9.74;74.62
39267;BME280;24967;51.154;13.812;2023-04-08T09:42:35;100111.69;;;9.85;73.97
39267;BME280;24967;51.154;13.812;2023-04-08T09:45:06;100112.16;;;9.90;73.04
39267;BME280;24967;51.154;13.812;2023-04-08T09:47:41;100109.63;;;9.89;72.86
39267;BME280;24967;51.154;13.812;2023-04-08T09:50:08;100107.75;;;9.79;72.51
39267;BME280;24967;51.154;13.812;2023-04-08T09:52:38;100121.03;;;9.79;71.23
39267;BME280;24967;51.154;13.812;2023-04-08T09:55:08;100114.69;;;9.71;71.00
39267;BME280;24967;51.154;13.812;2023-04-08T09:57:39;100116.56;;;9.59;71.74
39267;BME280;24967;51.154;13.812;2023-04-08T10:00:09;100115.97;;;9.76;71.44
39267;BME280;24967;51.154;13.812;2023-04-08T10:02:46;100119.63;;;10.06;71.34
39267;BME280;24967;51.154;13.812;2023-04-08T10:05:16;100121.25;;;9.97;69.73
39267;BME280;24967;51.154;13.812;2023-04-08T10:07:43;100111.25;;;9.59;70.22
39267;BME280;24967;51.154;13.812;2023-04-08T10:10:10;100110.31;;;9.60;70.88
39267;BME280;24967;51.154;13.812;2023-04-08T10:12:37;100109.63;;;9.68;70.34
39267;BME280;24967;51.154;13.812;2023-04-08T10:15:27;100110.41;;;9.79;72.02
39267;BME280;24967;51.154;13.812;2023-04-08T10:17:55;100119.41;;;10.19;72.03
39267;BME280;24967;51.154;13.812;2023-04-08T10:20:44;100116.59;;;10.41;69.51
39267;BME280;24967;51.154;13.812;2023-04-08T10:23:13;100119.66;;;10.46;68.21
39267;BME280;24967;51.154;13.812;2023-04-08T10:25:40;100115.31;;;10.45;69.11
39267;BME280;24967;51.154;13.812;2023-04-08T10:28:23;100122.19;;;10.48;68.12
39267;BME280;24967;51.154;13.812;2023-04-08T10:30:50;100124.03;;;10.57;67.47
39267;BME280;24967;51.154;13.812;2023-04-08T10:33:20;100126.53;;;10.59;66.76
39267;BME280;24967;51.154;13.812;2023-04-08T10:35:52;100117.97;;;10.36;67.53
39267;BME280;24967;51.154;13.812;2023-04-08T10:38:19;100130.69;;;10.32;67.80
39267;BME280;24967;51.154;13.812;2023-04-08T10:40:47;100124.09;;;10.26;67.29
39267;BME280;24967;51.154;13.812;2023-04-08T10:43:14;100132.69;;;10.19;67.14
39267;BME280;24967;51.154;13.812;2023-04-08T10:45:41;100128.66;;;10.24;67.40
39267;BME280;24967;51.154;13.812;2023-04-08T10:48:13;100131.25;;;10.36;67.79
39267;BME280;24967;51.154;13.812;2023-04-08T10:50:40;100141.94;;;10.55;67.89
39267;BME280;24967;51.154;13.812;2023-04-08T10:53:09;100138.81;;;10.19;68.26
39267;BME280;24967;51.154;13.812;2023-04-08T10:55:36;100132.91;;;10.06;68.70
39267;BME280;24967;51.154;13.812;2023-04-08T10:58:06;100139.28;;;9.94;69.54
39267;BME280;24967;51.154;13.812;2023-04-08T11:00:34;100142.81;;;10.04;69.71
39267;BME280;24967;51.154;13.812;2023-04-08T11:03:02;100144.38;;;10.06;69.47
39267;BME280;24967;51.154;13.812;2023-04-08T11:05:28;100145.19;;;10.28;69.14
39267;BME280;24967;51.154;13.812;2023-04-08T11:07:55;100147.59;;;10.10;69.40
39267;BME280;24967;51.154;13.812;2023-04-08T11:10:23;100144.94;;;10.10;70.04
39267;BME280;24967;51.154;13.812;2023-04-08T11:12:50;100141.41;;;10.00;70.44
39267;BME280;24967;51.154;13.812;2023-04-08T11:15:18;100139.81;;;9.88;70.83
39267;BME280;24967;51.154;13.812;2023-04-08T11:17:45;100143.00;;;9.81;71.39
39267;BME280;24967;51.154;13.812;2023-04-08T11:20:12;100141.22;;;9.92;70.85
39267;BME280;24967;51.154;13.812;2023-04-08T11:22:42;100139.91;;;9.86;71.19
39267;BME280;24967;51.154;13.812;2023-04-08T11:25:09;100140.03;;;9.75;71.18
39267;BME280;24967;51.154;13.812;2023-04-08T11:27:38;100142.41;;;9.57;71.38
39267;BME280;24967;51.154;13.812;2023-04-08T11:32:32;100156.25;;;9.60;71.61
39267;BME280;24967;51.154;13.812;2023-04-08T11:34:59;100151.06;;;9.59;71.56
39267;BME280;24967;51.154;13.812;2023-04-08T11:37:35;100159.81;;;9.50;71.56
39267;BME280;24967;51.154;13.812;2023-04-08T11:40:06;100153.63;;;9.60;71.52
39267;BME280;24967;51.154;13.812;2023-04-08T11:42:32;100156.06;;;9.52;71.74
39267;BME280;24967;51.154;13.812;2023-04-08T11:45:00;100157.38;;;9.58;72.00
39267;BME280;24967;51.154;13.812;2023-04-08T11:47:30;100161.38;;;9.73;70.74
39267;BME280;24967;51.154;13.812;2023-04-08T11:49:57;100159.38;;;9.66;70.75
39267;BME280;24967;51.154;13.812;2023-04-08T11:52:39;100166.81;;;9.51;71.15
39267;BME280;24967;51.154;13.812;2023-04-08T11:55:06;100167.78;;;9.50;71.48
39267;BME280;24967;51.154;13.812;2023-04-08T11:57:33;100171.44;;;9.37;71.81
39267;BME280;24967;51.154;13.812;2023-04-08T12:00:02;100173.91;;;9.29;72.67
39267;BME280;24967;51.154;13.812;2023-04-08T12:02:30;100166.06;;;9.28;73.44
39267;BME280;24967;51.154;13.812;2023-04-08T12:04:56;100167.69;;;9.40;73.63
39267;BME280;24967;51.154;13.812;2023-04-08T12:07:23;100161.44;;;9.41;73.78
39267;BME280;24967;51.154;13.812;2023-04-08T12:09:49;100163.75;;;9.34;74.59
39267;BME280;24967;51.154;13.812;2023-04-08T12:12:15;100169.91;;;9.56;73.98
39267;BME280;24967;51.154;13.812;2023-04-08T12:14:42;100173.47;;;9.45;73.68
39267;BME280;24967;51.154;13.812;2023-04-08T12:17:10;100180.66;;;8.90;76.00
39267;BME280;24967;51.154;13.812;2023-04-08T12:19:36;100186.47;;;8.84;76.31
39267;BME280;24967;51.154;13.812;2023-04-08T12:22:03;100186.34;;;8.85;77.89
39267;BME280;24967;51.154;13.812;2023-04-08T12:24:29;100183.59;;;8.53;78.64
39267;BME280;24967;51.154;13.812;2023-04-08T12:26:56;100192.81;;;8.92;77.64
39267;BME280;24967;51.154;13.812;2023-04-08T12:29:22;100196.19;;;8.94;77.41
39267;BME280;24967;51.154;13.812;2023-04-08T12:31:49;100203.91;;;8.86;77.33
39267;BME280;24967;51.154;13.812;2023-04-08T12:34:17;100199.59;;;8.85;76.73
39267;BME280;24967;51.154;13.812;2023-04-08T12:36:44;100203.97;;;8.75;77.10
39267;BME280;24967;51.154;13.812;2023-04-08T12:39:11;100208.66;;;8.60;77.40
39267;BME280;24967;51.154;13.812;2023-04-08T12:41:38;100203.56;;;8.35;78.14
39267;BME280;24967;51.154;13.812;2023-04-08T12:44:04;100215.63;;;8.27;79.79
39267;BME280;24967;51.154;13.812;2023-04-08T12:46:31;100207.19;;;8.34;78.92
39267;BME280;24967;51.154;13.812;2023-04-08T12:48:57;100216.94;;;8.33;79.68
39267;BME280;24967;51.154;13.812;2023-04-08T12:51:26;100218.44;;;8.48;78.87
39267;BME280;24967;51.154;13.812;2023-04-08T12:53:53;100217.19;;;8.30;78.42
39267;BME280;24967;51.154;13.812;2023-04-08T12:56:20;100215.50;;;8.29;78.46
39267;BME280;24967;51.154;13.812;2023-04-08T12:58:46;100217.19;;;8.30;79.41
39267;BME280;24967;51.154;13.812;2023-04-08T13:01:13;100216.63;;;8.49;78.82
39267;BME280;24967;51.154;13.812;2023-04-08T13:03:39;100210.25;;;8.63;78.00
39267;BME280;24967;51.154;13.812;2023-04-08T13:06:07;100214.06;;;8.70;76.96
39267;BME280;24967;51.154;13.812;2023-04-08T13:08:34;100214.41;;;8.77;76.97
39267;BME280;24967;51.154;13.812;2023-04-08T13:11:01;100211.88;;;8.86;75.75
39267;BME280;24967;51.154;13.812;2023-04-08T13:13:27;100211.63;;;9.01;74.95